createdAt,value
2023-01-08T00:00:36.000Z,90.51
2023-01-08T00:01:36.000Z,90.76
2023-01-08T00:02:36.000Z,90.82
2023-01-08T00:03:36.000Z,90.86
2023-01-08T00:04:36.000Z,90.76
2023-01-08T00:05:36.000Z,90.66
2023-01-08T00:06:36.000Z,90.55
2023-01-08T00:07:36.000Z,90.66
2023-01-08T00:08:36.000Z,90.76
2023-01-08T00:09:36.000Z,90.86
2023-01-08T00:10:36.000Z,90.86
2023-01-08T00:11:36.000Z,90.76
2023-01-08T00:12:36.000Z,90.66
2023-01-08T00:13:36.000Z,90.66
2023-01-08T00:14:36.000Z,90.51
2023-01-08T00:15:36.000Z,90.55
2023-01-08T00:16:36.000Z,90.45
2023-01-08T00:17:36.000Z,90.35
2023-01-08T00:18:36.000Z,90.55
2023-01-08T00:19:36.000Z,90.76
2023-01-08T00:20:36.000Z,90.55
2023-01-08T00:21:36.000Z,90.45
2023-01-08T00:22:36.000Z,90.41
2023-01-08T00:23:36.000Z,90.31
2023-01-08T00:24:36.000Z,90.45
2023-01-08T00:25:36.000Z,90.20
2023-01-08T00:26:36.000Z,90.10
2023-01-08T00:27:36.000Z,90.00
2023-01-08T00:28:36.000Z,90.00
2023-01-08T00:29:36.000Z,89.89
2023-01-08T00:30:36.000Z,89.89
2023-01-08T00:31:36.000Z,90.00
2023-01-08T00:32:36.000Z,90.00
2023-01-08T00:33:36.000Z,89.89
2023-01-08T00:34:36.000Z,89.69
2023-01-08T00:35:36.000Z,89.69
2023-01-08T00:36:36.000Z,89.69
2023-01-08T00:37:36.000Z,89.69
2023-01-08T00:38:36.000Z,89.69
2023-01-08T00:39:36.000Z,89.69
2023-01-08T00:40:36.000Z,89.75
2023-01-08T00:41:36.000Z,89.79
2023-01-08T00:42:36.000Z,89.85
2023-01-08T00:43:36.000Z,89.95
2023-01-08T00:44:36.000Z,89.75
2023-01-08T00:45:36.000Z,89.34
2023-01-08T00:46:36.000Z,89.23
2023-01-08T00:47:36.000Z,89.23
2023-01-08T00:48:36.000Z,89.13
2023-01-08T00:49:36.000Z,88.92
2023-01-08T00:50:36.000Z,88.92
2023-01-08T00:51:36.000Z,88.82
2023-01-08T00:52:36.000Z,88.92
2023-01-08T00:53:36.000Z,88.78
2023-01-08T00:54:36.000Z,88.82
2023-01-08T00:55:36.000Z,88.78
2023-01-08T00:56:36.000Z,88.89
2023-01-08T00:57:36.000Z,88.82
2023-01-08T00:58:36.000Z,88.78
2023-01-08T00:59:36.000Z,88.82
2023-01-08T01:00:36.000Z,88.82
2023-01-08T01:01:36.000Z,88.72
2023-01-08T01:02:36.000Z,88.92
2023-01-08T01:03:36.000Z,89.03
2023-01-08T01:04:36.000Z,88.82
2023-01-08T01:05:36.000Z,88.82
2023-01-08T01:06:36.000Z,88.57
2023-01-08T01:07:36.000Z,88.68
2023-01-08T01:08:36.000Z,88.26
2023-01-08T01:09:36.000Z,88.17
2023-01-08T01:10:36.000Z,87.85
2023-01-08T01:11:36.000Z,87.85
2023-01-08T01:12:36.000Z,87.81
2023-01-08T01:13:36.000Z,87.71
2023-01-08T01:14:36.000Z,87.51
2023-01-08T01:15:36.000Z,87.40
2023-01-08T01:16:37.000Z,87.19
2023-01-08T01:17:37.000Z,87.19
2023-01-08T01:18:37.000Z,86.99
2023-01-08T01:19:37.000Z,86.99
2023-01-08T01:20:37.000Z,86.99
2023-01-08T01:21:37.000Z,86.99
2023-01-08T01:22:37.000Z,87.40
2023-01-08T01:23:37.000Z,87.71
2023-01-08T01:24:37.000Z,87.51
2023-01-08T01:25:37.000Z,87.60
2023-01-08T01:26:37.000Z,87.51
2023-01-08T01:27:37.000Z,87.71
2023-01-08T01:28:37.000Z,87.40
2023-01-08T01:29:37.000Z,87.19
2023-01-08T01:30:37.000Z,87.09
2023-01-08T01:31:37.000Z,86.99
2023-01-08T01:32:37.000Z,86.88
2023-01-08T01:33:37.000Z,86.88
2023-01-08T01:34:37.000Z,86.88
2023-01-08T01:35:37.000Z,86.68
2023-01-08T01:36:37.000Z,86.99
2023-01-08T01:37:37.000Z,86.99
2023-01-08T01:38:37.000Z,86.88
2023-01-08T01:39:37.000Z,86.79
2023-01-08T01:40:37.000Z,86.68
2023-01-08T01:41:37.000Z,86.88
2023-01-08T01:42:37.000Z,86.99
2023-01-08T01:43:37.000Z,87.13
2023-01-08T01:44:37.000Z,87.03
2023-01-08T01:45:37.000Z,87.03
2023-01-08T01:46:37.000Z,87.24
2023-01-08T01:47:37.000Z,87.34
2023-01-08T01:48:37.000Z,87.54
2023-01-08T01:49:37.000Z,87.44
2023-01-08T01:50:37.000Z,87.65
2023-01-08T01:51:37.000Z,87.44
2023-01-08T01:52:37.000Z,87.54
2023-01-08T01:53:37.000Z,87.48
2023-01-08T01:54:37.000Z,87.48
2023-01-08T01:55:37.000Z,87.59
2023-01-08T01:56:37.000Z,87.54
2023-01-08T01:57:37.000Z,87.59
2023-01-08T01:58:37.000Z,87.79
2023-01-08T01:59:37.000Z,87.90
2023-01-08T02:00:37.000Z,87.90
2023-01-08T02:01:37.000Z,87.90
2023-01-08T02:02:37.000Z,87.90
2023-01-08T02:03:37.000Z,88.10
2023-01-08T02:04:37.000Z,88.10
2023-01-08T02:05:37.000Z,88.45
2023-01-08T02:06:37.000Z,88.45
2023-01-08T02:07:37.000Z,88.24
2023-01-08T02:08:37.000Z,88.20
2023-01-08T02:09:37.000Z,88.14
2023-01-08T02:10:37.000Z,88.14
2023-01-08T02:11:37.000Z,88.14
2023-01-08T02:12:37.000Z,88.14
2023-01-08T02:13:37.000Z,88.24
2023-01-08T02:14:37.000Z,88.45
2023-01-08T02:15:37.000Z,88.56
2023-01-08T02:16:37.000Z,88.59
2023-01-08T02:17:37.000Z,88.56
2023-01-08T02:18:37.000Z,88.70
2023-01-08T02:19:37.000Z,88.90
2023-01-08T02:20:37.000Z,88.90
2023-01-08T02:21:37.000Z,89.01
2023-01-08T02:22:37.000Z,89.01
2023-01-08T02:23:37.000Z,89.01
2023-01-08T02:24:37.000Z,89.11
2023-01-08T02:25:37.000Z,89.15
2023-01-08T02:26:37.000Z,89.11
2023-01-08T02:27:37.000Z,89.46
2023-01-08T02:28:37.000Z,89.46
2023-01-08T02:29:37.000Z,89.36
2023-01-08T02:30:37.000Z,89.36
2023-01-08T02:31:37.000Z,89.56
2023-01-08T02:32:37.000Z,89.67
2023-01-08T02:33:37.000Z,89.77
2023-01-08T02:34:37.000Z,89.77
2023-01-08T02:35:37.000Z,89.81
2023-01-08T02:36:37.000Z,89.92
2023-01-08T02:37:37.000Z,90.02
2023-01-08T02:38:37.000Z,90.12
2023-01-08T02:39:37.000Z,90.33
2023-01-08T02:40:37.000Z,90.53
2023-01-08T02:41:37.000Z,90.43
2023-01-08T02:42:37.000Z,90.53
2023-01-08T02:43:37.000Z,90.74
2023-01-08T02:44:37.000Z,90.53
2023-01-08T02:45:37.000Z,90.43
2023-01-08T02:46:37.000Z,90.53
2023-01-08T02:47:37.000Z,90.74
2023-01-08T02:48:37.000Z,90.74
2023-01-08T02:49:37.000Z,90.74
2023-01-08T02:50:37.000Z,90.64
2023-01-08T02:51:37.000Z,90.59
2023-01-08T02:52:37.000Z,90.64
2023-01-08T02:53:37.000Z,90.64
2023-01-08T02:54:37.000Z,90.70
2023-01-08T02:55:37.000Z,91.11
2023-01-08T02:56:37.000Z,91.11
2023-01-08T02:57:37.000Z,91.22
2023-01-08T02:58:37.000Z,90.80
2023-01-08T02:59:37.000Z,90.70
2023-01-08T03:00:37.000Z,90.59
2023-01-08T03:01:38.000Z,90.59
2023-01-08T03:02:38.000Z,90.59
2023-01-08T03:03:38.000Z,90.59
2023-01-08T03:04:38.000Z,90.70
2023-01-08T03:05:38.000Z,90.59
2023-01-08T03:06:38.000Z,90.59
2023-01-08T03:07:38.000Z,90.59
2023-01-08T03:08:38.000Z,90.59
2023-01-08T03:09:38.000Z,90.59
2023-01-08T03:10:38.000Z,90.59
2023-01-08T03:11:38.000Z,90.59
2023-01-08T03:12:38.000Z,90.59
2023-01-08T03:13:38.000Z,90.39
2023-01-08T03:14:38.000Z,90.28
2023-01-08T03:15:38.000Z,90.28
2023-01-08T03:16:38.000Z,90.14
2023-01-08T03:17:38.000Z,90.08
2023-01-08T03:18:38.000Z,90.04
2023-01-08T03:19:38.000Z,89.94
2023-01-08T03:20:38.000Z,89.94
2023-01-08T03:21:38.000Z,90.04
2023-01-08T03:22:38.000Z,90.14
2023-01-08T03:23:38.000Z,90.25
2023-01-08T03:24:38.000Z,90.14
2023-01-08T03:25:38.000Z,89.94
2023-01-08T03:26:38.000Z,90.04
2023-01-08T03:27:38.000Z,90.14
2023-01-08T03:28:38.000Z,90.04
2023-01-08T03:29:38.000Z,89.52
2023-01-08T03:30:38.000Z,89.01
2023-01-08T03:31:38.000Z,88.96
2023-01-08T03:32:38.000Z,88.65
2023-01-08T03:33:38.000Z,88.45
2023-01-08T03:34:38.000Z,87.52
2023-01-08T03:35:38.000Z,87.59
2023-01-08T03:36:38.000Z,87.59
2023-01-08T03:37:38.000Z,87.48
2023-01-08T03:38:38.000Z,87.17
2023-01-08T03:39:38.000Z,87.38
2023-01-08T03:40:38.000Z,87.69
2023-01-08T03:41:38.000Z,87.48
2023-01-08T03:42:38.000Z,87.27
2023-01-08T03:43:38.000Z,86.97
2023-01-08T03:44:38.000Z,87.17
2023-01-08T03:45:38.000Z,86.97
2023-01-08T03:46:38.000Z,86.97
2023-01-08T03:47:38.000Z,86.87
2023-01-08T03:48:38.000Z,87.01
2023-01-08T03:49:38.000Z,86.70
2023-01-08T03:50:38.000Z,86.90
2023-01-08T03:51:38.000Z,86.87
2023-01-08T03:52:38.000Z,86.76
2023-01-08T03:53:38.000Z,86.66
2023-01-08T03:54:38.000Z,86.70
2023-01-08T03:55:38.000Z,86.76
2023-01-08T03:56:38.000Z,86.80
2023-01-08T03:57:38.000Z,86.55
2023-01-08T03:58:38.000Z,86.35
2023-01-08T03:59:38.000Z,86.35
2023-01-08T04:00:38.000Z,86.29
2023-01-08T04:01:38.000Z,86.49
2023-01-08T04:02:38.000Z,86.45
2023-01-08T04:03:38.000Z,86.97
2023-01-08T04:04:38.000Z,87.01
2023-01-08T04:05:38.000Z,86.49
2023-01-08T04:06:38.000Z,86.24
2023-01-08T04:07:38.000Z,86.55
2023-01-08T04:08:38.000Z,86.24
2023-01-08T04:09:38.000Z,85.73
2023-01-08T04:10:38.000Z,85.83
2023-01-08T04:11:38.000Z,85.73
2023-01-08T04:12:38.000Z,85.42
2023-01-08T04:13:38.000Z,85.73
2023-01-08T04:14:38.000Z,85.83
2023-01-08T04:15:38.000Z,85.83
2023-01-08T04:16:38.000Z,85.94
2023-01-08T04:17:38.000Z,85.94
2023-01-08T04:18:38.000Z,85.94
2023-01-08T04:19:38.000Z,85.83
2023-01-08T04:20:38.000Z,85.73
2023-01-08T04:21:38.000Z,85.94
2023-01-08T04:22:38.000Z,86.04
2023-01-08T04:23:38.000Z,86.15
2023-01-08T04:24:38.000Z,86.35
2023-01-08T04:25:38.000Z,86.35
2023-01-08T04:26:38.000Z,86.15
2023-01-08T04:27:38.000Z,86.24
2023-01-08T04:28:38.000Z,86.04
2023-01-08T04:29:38.000Z,86.24
2023-01-08T04:30:38.000Z,86.04
2023-01-08T04:31:38.000Z,86.24
2023-01-08T04:32:38.000Z,86.24
2023-01-08T04:33:38.000Z,85.94
2023-01-08T04:34:38.000Z,85.73
2023-01-08T04:35:38.000Z,85.22
2023-01-08T04:36:38.000Z,85.01
2023-01-08T04:37:38.000Z,85.11
2023-01-08T04:38:38.000Z,85.73
2023-01-08T04:39:38.000Z,85.42
2023-01-08T04:40:38.000Z,85.83
2023-01-08T04:41:38.000Z,85.22
2023-01-08T04:42:38.000Z,84.87
2023-01-08T04:43:38.000Z,85.01
2023-01-08T04:44:38.000Z,84.59
2023-01-08T04:45:38.000Z,84.45
2023-01-08T04:46:38.000Z,84.35
2023-01-08T04:47:38.000Z,84.25
2023-01-08T04:48:38.000Z,84.05
2023-01-08T04:49:38.000Z,83.94
2023-01-08T04:50:38.000Z,83.84
2023-01-08T04:51:38.000Z,83.94
2023-01-08T04:52:38.000Z,84.25
2023-01-08T04:53:38.000Z,84.05
2023-01-08T04:54:38.000Z,83.84
2023-01-08T04:55:38.000Z,83.84
2023-01-08T04:56:38.000Z,83.63
2023-01-08T04:57:38.000Z,83.73
2023-01-08T04:58:38.000Z,83.39
2023-01-08T04:59:38.000Z,83.18
2023-01-08T05:00:38.000Z,83.07
2023-01-08T05:01:38.000Z,83.59
2023-01-08T05:02:38.000Z,83.39
2023-01-08T05:03:38.000Z,83.49
2023-01-08T05:04:38.000Z,83.07
2023-01-08T05:05:38.000Z,82.87
2023-01-08T05:06:38.000Z,83.18
2023-01-08T05:07:38.000Z,83.39
2023-01-08T05:08:38.000Z,83.80
2023-01-08T05:09:38.000Z,83.80
2023-01-08T05:10:38.000Z,83.49
2023-01-08T05:11:38.000Z,83.07
2023-01-08T05:12:38.000Z,83.18
2023-01-08T05:13:38.000Z,83.70
2023-01-08T05:14:38.000Z,83.70
2023-01-08T05:15:38.000Z,83.84
2023-01-08T05:16:38.000Z,83.73
2023-01-08T05:17:38.000Z,84.05
2023-01-08T05:18:38.000Z,84.05
2023-01-08T05:19:38.000Z,83.63
2023-01-08T05:20:38.000Z,83.63
2023-01-08T05:21:38.000Z,83.73
2023-01-08T05:22:38.000Z,83.42
2023-01-08T05:23:38.000Z,83.18
2023-01-08T05:24:38.000Z,83.70
2023-01-08T05:25:38.000Z,83.70
2023-01-08T05:26:38.000Z,83.80
2023-01-08T05:27:38.000Z,84.21
2023-01-08T05:28:38.000Z,84.21
2023-01-08T05:29:38.000Z,83.80
2023-01-08T05:30:38.000Z,84.56
2023-01-08T05:31:38.000Z,84.45
2023-01-08T05:32:38.000Z,84.25
2023-01-08T05:33:38.000Z,84.62
2023-01-08T05:34:38.000Z,84.42
2023-01-08T05:35:38.000Z,83.70
2023-01-08T05:36:38.000Z,83.59
2023-01-08T05:37:38.000Z,83.39
2023-01-08T05:38:38.000Z,83.18
2023-01-08T05:39:38.000Z,83.18
2023-01-08T05:40:38.000Z,82.93
2023-01-08T05:41:38.000Z,83.04
2023-01-08T05:42:38.000Z,82.53
2023-01-08T05:43:38.000Z,82.42
2023-01-08T05:44:38.000Z,83.04
2023-01-08T05:45:38.000Z,82.83
2023-01-08T05:46:38.000Z,82.53
2023-01-08T05:47:38.000Z,82.63
2023-01-08T05:48:38.000Z,82.32
2023-01-08T05:49:39.000Z,82.93
2023-01-08T05:50:39.000Z,82.53
2023-01-08T05:51:39.000Z,82.42
2023-01-08T05:52:39.000Z,82.28
2023-01-08T05:53:39.000Z,82.28
2023-01-08T05:54:39.000Z,82.28
2023-01-08T05:55:39.000Z,81.97
2023-01-08T05:56:39.000Z,82.07
2023-01-08T05:57:39.000Z,82.79
2023-01-08T05:58:39.000Z,82.59
2023-01-08T05:59:39.000Z,82.69
2023-01-08T06:00:39.000Z,82.69
2023-01-08T06:01:39.000Z,82.90
2023-01-08T06:02:39.000Z,82.69
2023-01-08T06:03:39.000Z,82.79
2023-01-08T06:04:39.000Z,83.41
2023-01-08T06:05:39.000Z,83.11
2023-01-08T06:06:39.000Z,82.79
2023-01-08T06:07:39.000Z,83.20
2023-01-08T06:08:39.000Z,82.79
2023-01-08T06:09:39.000Z,83.31
2023-01-08T06:10:39.000Z,82.79
2023-01-08T06:11:39.000Z,82.79
2023-01-08T06:12:39.000Z,83.11
2023-01-08T06:13:39.000Z,82.79
2023-01-08T06:14:39.000Z,83.31
2023-01-08T06:15:39.000Z,83.00
2023-01-08T06:16:39.000Z,83.11
2023-01-08T06:17:39.000Z,82.79
2023-01-08T06:18:39.000Z,82.69
2023-01-08T06:19:39.000Z,83.31
2023-01-08T06:20:39.000Z,83.31
2023-01-08T06:21:39.000Z,82.69
2023-01-08T06:22:39.000Z,82.90
2023-01-08T06:23:39.000Z,82.90
2023-01-08T06:24:39.000Z,82.69
2023-01-08T06:25:39.000Z,82.39
2023-01-08T06:26:39.000Z,82.48
2023-01-08T06:27:39.000Z,82.69
2023-01-08T06:28:39.000Z,83.11
2023-01-08T06:29:39.000Z,83.00
2023-01-08T06:30:39.000Z,82.69
2023-01-08T06:31:39.000Z,82.48
2023-01-08T06:32:39.000Z,82.48
2023-01-08T06:33:39.000Z,82.48
2023-01-08T06:34:39.000Z,82.48
2023-01-08T06:35:39.000Z,82.18
2023-01-08T06:36:39.000Z,82.79
2023-01-08T06:37:39.000Z,83.20
2023-01-08T06:38:39.000Z,82.90
2023-01-08T06:39:39.000Z,83.20
2023-01-08T06:40:39.000Z,83.11
2023-01-08T06:41:39.000Z,83.00
2023-01-08T06:42:39.000Z,83.00
2023-01-08T06:43:38.000Z,83.00
2023-01-08T06:44:38.000Z,83.41
2023-01-08T06:45:38.000Z,83.31
2023-01-08T06:46:38.000Z,83.00
2023-01-08T06:47:38.000Z,83.11
2023-01-08T06:48:38.000Z,83.00
2023-01-08T06:49:38.000Z,83.41
2023-01-08T06:50:38.000Z,83.20
2023-01-08T06:51:38.000Z,83.11
2023-01-08T06:52:38.000Z,83.11
2023-01-08T06:53:38.000Z,83.31
2023-01-08T06:54:38.000Z,83.31
2023-01-08T06:55:38.000Z,83.72
2023-01-08T06:56:38.000Z,83.72
2023-01-08T06:57:38.000Z,83.20
2023-01-08T06:58:38.000Z,83.41
2023-01-08T06:59:38.000Z,83.62
2023-01-08T07:00:38.000Z,83.51
2023-01-08T07:01:38.000Z,83.62
2023-01-08T07:02:38.000Z,83.72
2023-01-08T07:03:38.000Z,83.51
2023-01-08T07:10:57.000Z,84.03
2023-01-08T07:10:57.000Z,83.83
2023-01-08T07:11:57.000Z,84.13
2023-01-08T07:12:57.000Z,84.34
2023-01-08T07:13:57.000Z,84.23
2023-01-08T07:14:57.000Z,84.03
2023-01-08T07:15:57.000Z,84.23
2023-01-08T07:16:57.000Z,84.85
2023-01-08T07:17:57.000Z,84.44
2023-01-08T07:18:57.000Z,83.92
2023-01-08T07:19:57.000Z,84.03
2023-01-08T07:20:57.000Z,84.34
2023-01-08T07:21:57.000Z,84.34
2023-01-08T07:22:57.000Z,84.54
2023-01-08T07:23:57.000Z,84.44
2023-01-08T07:24:57.000Z,84.54
2023-01-08T07:25:57.000Z,84.23
2023-01-08T07:26:57.000Z,84.23
2023-01-08T07:27:57.000Z,84.34
2023-01-08T07:28:57.000Z,84.54
2023-01-08T07:29:57.000Z,84.03
2023-01-08T07:30:57.000Z,84.34
2023-01-08T07:31:57.000Z,84.34
2023-01-08T07:32:57.000Z,84.13
2023-01-08T07:33:57.000Z,84.23
2023-01-08T07:34:57.000Z,84.13
2023-01-08T07:35:57.000Z,84.13
2023-01-08T07:36:57.000Z,83.92
2023-01-08T07:37:57.000Z,84.13
2023-01-08T07:38:57.000Z,83.92
2023-01-08T07:39:57.000Z,84.13
2023-01-08T07:40:57.000Z,84.23
2023-01-08T07:41:57.000Z,84.13
2023-01-08T07:42:57.000Z,84.23
2023-01-08T07:43:57.000Z,85.06
2023-01-08T07:44:57.000Z,85.36
2023-01-08T07:45:57.000Z,84.85
2023-01-08T07:46:57.000Z,84.95
2023-01-08T07:47:57.000Z,84.75
2023-01-08T07:48:57.000Z,85.26
2023-01-08T07:49:57.000Z,85.68
2023-01-08T07:50:57.000Z,85.47
2023-01-08T07:51:57.000Z,85.57
2023-01-08T07:52:57.000Z,85.68
2023-01-08T07:53:57.000Z,85.78
2023-01-08T07:54:57.000Z,85.68
2023-01-08T07:55:57.000Z,85.57
2023-01-08T07:56:57.000Z,85.92
2023-01-08T07:57:57.000Z,85.92
2023-01-08T07:58:57.000Z,86.13
2023-01-08T07:59:57.000Z,86.02
2023-01-08T08:00:57.000Z,86.02
2023-01-08T08:01:57.000Z,85.82
2023-01-08T08:02:57.000Z,85.92
2023-01-08T08:03:57.000Z,85.92
2023-01-08T08:04:57.000Z,85.92
2023-01-08T08:05:57.000Z,86.02
2023-01-08T08:06:57.000Z,86.02
2023-01-08T08:07:57.000Z,86.23
2023-01-08T08:08:57.000Z,86.13
2023-01-08T08:09:57.000Z,86.13
2023-01-08T08:10:57.000Z,86.23
2023-01-08T08:11:57.000Z,86.02
2023-01-08T08:12:57.000Z,85.92
2023-01-08T08:13:57.000Z,86.23
2023-01-08T08:14:57.000Z,86.74
2023-01-08T08:15:57.000Z,86.64
2023-01-08T08:16:57.000Z,86.54
2023-01-08T08:17:57.000Z,86.64
2023-01-08T08:18:57.000Z,86.33
2023-01-08T08:19:57.000Z,86.64
2023-01-08T08:20:57.000Z,86.85
2023-01-08T08:21:57.000Z,86.64
2023-01-08T08:22:57.000Z,86.74
2023-01-08T08:23:57.000Z,86.43
2023-01-08T08:24:57.000Z,86.23
2023-01-08T08:25:57.000Z,86.43
2023-01-08T08:26:57.000Z,86.74
2023-01-08T08:27:56.000Z,86.64
2023-01-08T08:28:56.000Z,86.74
2023-01-08T08:29:56.000Z,86.85
2023-01-08T08:30:56.000Z,86.74
2023-01-08T08:31:56.000Z,86.64
2023-01-08T08:32:56.000Z,86.33
2023-01-08T08:33:56.000Z,86.85
2023-01-08T08:34:56.000Z,86.85
2023-01-08T08:35:56.000Z,87.05
2023-01-08T08:36:56.000Z,86.95
2023-01-08T08:37:56.000Z,86.60
2023-01-08T08:38:56.000Z,86.74
2023-01-08T08:39:56.000Z,86.60
2023-01-08T08:40:56.000Z,86.60
2023-01-08T08:41:56.000Z,87.12
2023-01-08T08:42:56.000Z,87.22
2023-01-08T08:43:56.000Z,87.63
2023-01-08T08:44:56.000Z,87.63
2023-01-08T08:45:56.000Z,87.22
2023-01-08T08:46:56.000Z,87.32
2023-01-08T08:47:56.000Z,87.63
2023-01-08T08:48:56.000Z,87.32
2023-01-08T08:49:56.000Z,87.42
2023-01-08T08:50:56.000Z,88.04
2023-01-08T08:51:56.000Z,88.66
2023-01-08T08:52:56.000Z,88.14
2023-01-08T08:53:56.000Z,88.14
2023-01-08T08:54:56.000Z,88.56
2023-01-08T08:55:56.000Z,88.76
2023-01-08T08:56:56.000Z,88.76
2023-01-08T08:57:56.000Z,88.45
2023-01-08T08:58:56.000Z,88.96
2023-01-08T08:59:56.000Z,89.28
2023-01-08T09:00:56.000Z,89.79
2023-01-08T09:01:56.000Z,90.00
2023-01-08T09:02:56.000Z,89.58
2023-01-08T09:03:56.000Z,89.17
2023-01-08T09:04:56.000Z,89.38
2023-01-08T09:05:56.000Z,89.89
2023-01-08T09:06:56.000Z,90.45
2023-01-08T09:07:56.000Z,90.61
2023-01-08T09:08:56.000Z,90.61
2023-01-08T09:09:56.000Z,90.41
2023-01-08T09:10:56.000Z,90.03
2023-01-08T09:11:56.000Z,89.73
2023-01-08T09:12:56.000Z,90.03
2023-01-08T09:13:56.000Z,90.24
2023-01-08T09:14:56.000Z,89.83
2023-01-08T09:15:56.000Z,90.34
2023-01-08T09:16:56.000Z,90.55
2023-01-08T09:17:56.000Z,90.66
2023-01-08T09:18:56.000Z,91.06
2023-01-08T09:19:56.000Z,91.68
2023-01-08T09:20:56.000Z,91.47
2023-01-08T09:21:56.000Z,90.96
2023-01-08T09:22:56.000Z,90.96
2023-01-08T09:23:56.000Z,91.58
2023-01-08T09:24:56.000Z,91.58
2023-01-08T09:25:56.000Z,91.89
2023-01-08T09:26:56.000Z,92.82
2023-01-08T09:27:56.000Z,93.12
2023-01-08T09:28:56.000Z,93.33
2023-01-08T09:29:56.000Z,93.48
2023-01-08T09:30:56.000Z,93.54
2023-01-08T09:31:56.000Z,93.48
2023-01-08T09:32:56.000Z,92.86
2023-01-08T09:33:56.000Z,92.76
2023-01-08T09:34:56.000Z,93.16
2023-01-08T09:35:56.000Z,93.27
2023-01-08T09:36:56.000Z,93.43
2023-01-08T09:37:56.000Z,93.12
2023-01-08T09:38:56.000Z,92.40
2023-01-08T09:39:56.000Z,92.82
2023-01-08T09:40:56.000Z,92.92
2023-01-08T09:41:56.000Z,92.82
2023-01-08T09:42:56.000Z,92.71
2023-01-08T09:43:56.000Z,93.23
2023-01-08T09:44:56.000Z,93.23
2023-01-08T09:45:56.000Z,93.33
2023-01-08T09:46:56.000Z,93.74
2023-01-08T09:47:56.000Z,93.54
2023-01-08T09:48:56.000Z,93.23
2023-01-08T09:49:56.000Z,92.82
2023-01-08T09:50:56.000Z,92.97
2023-01-08T09:51:56.000Z,92.92
2023-01-08T09:52:56.000Z,92.40
2023-01-08T09:53:56.000Z,92.61
2023-01-08T09:54:56.000Z,92.40
2023-01-08T09:55:56.000Z,92.40
2023-01-08T09:56:56.000Z,92.57
2023-01-08T09:57:56.000Z,92.36
2023-01-08T09:58:56.000Z,91.38
2023-01-08T09:59:56.000Z,91.64
2023-01-08T10:00:56.000Z,90.86
2023-01-08T10:01:56.000Z,90.20
2023-01-08T10:02:56.000Z,88.86
2023-01-08T10:03:56.000Z,89.48
2023-01-08T10:04:56.000Z,90.41
2023-01-08T10:05:56.000Z,90.09
2023-01-08T10:06:56.000Z,89.89
2023-01-08T10:07:56.000Z,88.72
2023-01-08T10:08:56.000Z,89.23
2023-01-08T10:09:56.000Z,89.75
2023-01-08T10:10:56.000Z,89.34
2023-01-08T10:11:56.000Z,89.23
2023-01-08T10:12:56.000Z,89.75
2023-01-08T10:13:56.000Z,88.92
2023-01-08T10:14:56.000Z,88.20
2023-01-08T10:15:56.000Z,88.92
2023-01-08T10:16:56.000Z,88.92
2023-01-08T10:17:56.000Z,88.41
2023-01-08T10:18:56.000Z,87.59
2023-01-08T10:19:56.000Z,87.49
2023-01-08T10:20:56.000Z,86.35
2023-01-08T10:21:56.000Z,86.35
2023-01-08T10:22:56.000Z,86.77
2023-01-08T10:23:56.000Z,88.17
2023-01-08T10:24:56.000Z,88.06
2023-01-08T10:25:56.000Z,87.34
2023-01-08T10:26:55.000Z,87.34
2023-01-08T10:27:55.000Z,86.52
2023-01-08T10:28:55.000Z,87.45
2023-01-08T10:29:55.000Z,87.65
2023-01-08T10:30:55.000Z,87.04
2023-01-08T10:31:55.000Z,86.62
2023-01-08T10:32:55.000Z,86.62
2023-01-08T10:33:55.000Z,86.00
2023-01-08T10:34:55.000Z,86.52
2023-01-08T10:35:55.000Z,86.32
2023-01-08T10:36:55.000Z,86.32
2023-01-08T10:37:55.000Z,86.72
2023-01-08T10:38:55.000Z,86.52
2023-01-08T10:39:55.000Z,85.70
2023-01-08T10:40:55.000Z,86.42
2023-01-08T10:41:55.000Z,85.80
2023-01-08T10:42:55.000Z,86.11
2023-01-08T10:43:55.000Z,86.32
2023-01-08T10:44:55.000Z,86.21
2023-01-08T10:45:55.000Z,85.70
2023-01-08T10:46:55.000Z,85.39
2023-01-08T10:47:55.000Z,85.60
2023-01-08T10:48:55.000Z,85.90
2023-01-08T10:49:55.000Z,86.11
2023-01-08T10:50:55.000Z,86.11
2023-01-08T10:51:55.000Z,85.80
2023-01-08T10:52:55.000Z,86.42
2023-01-08T10:53:55.000Z,86.21
2023-01-08T10:54:55.000Z,86.42
2023-01-08T10:55:55.000Z,85.70
2023-01-08T10:56:55.000Z,85.60
2023-01-08T10:57:55.000Z,85.28
2023-01-08T10:58:55.000Z,86.00
2023-01-08T10:59:55.000Z,85.90
2023-01-08T11:00:55.000Z,85.49
2023-01-08T11:01:55.000Z,85.49
2023-01-08T11:02:55.000Z,85.18
2023-01-08T11:03:55.000Z,85.39
2023-01-08T11:04:55.000Z,85.08
2023-01-08T11:05:55.000Z,85.28
2023-01-08T11:06:55.000Z,85.49
2023-01-08T11:07:55.000Z,85.28
2023-01-08T11:08:55.000Z,86.00
2023-01-08T11:09:55.000Z,85.39
2023-01-08T11:10:55.000Z,85.49
2023-01-08T11:11:55.000Z,86.00
2023-01-08T11:12:55.000Z,86.21
2023-01-08T11:13:55.000Z,85.90
2023-01-08T11:14:55.000Z,85.80
2023-01-08T11:15:55.000Z,86.32
2023-01-08T11:16:55.000Z,86.11
2023-01-08T11:17:55.000Z,86.52
2023-01-08T11:18:55.000Z,86.32
2023-01-08T11:19:55.000Z,86.21
2023-01-08T11:20:55.000Z,86.21
2023-01-08T11:21:55.000Z,85.39
2023-01-08T11:22:55.000Z,85.80
2023-01-08T11:23:55.000Z,85.90
2023-01-08T11:24:55.000Z,85.70
2023-01-08T11:25:55.000Z,85.08
2023-01-08T11:26:55.000Z,86.32
2023-01-08T11:27:55.000Z,85.18
2023-01-08T11:28:55.000Z,84.88
2023-01-08T11:36:12.000Z,83.61
2023-01-08T11:36:12.000Z,84.53
2023-01-08T11:37:12.000Z,83.81
2023-01-08T11:38:12.000Z,83.29
2023-01-08T11:39:12.000Z,84.01
2023-01-08T11:40:12.000Z,83.50
2023-01-08T11:41:12.000Z,83.81
2023-01-08T11:42:12.000Z,84.01
2023-01-08T11:43:12.000Z,82.89
2023-01-08T11:44:12.000Z,83.40
2023-01-08T11:45:12.000Z,83.40
2023-01-08T11:46:12.000Z,83.29
2023-01-08T11:47:12.000Z,82.37
2023-01-08T11:48:12.000Z,82.99
2023-01-08T11:49:12.000Z,83.09
2023-01-08T11:50:12.000Z,83.50
2023-01-08T11:51:12.000Z,82.57
2023-01-08T11:52:12.000Z,82.57
2023-01-08T11:53:12.000Z,82.99
2023-01-08T11:54:12.000Z,83.61
2023-01-08T11:55:12.000Z,82.68
2023-01-08T11:56:12.000Z,82.27
2023-01-08T11:57:12.000Z,82.06
2023-01-08T11:58:12.000Z,82.27
2023-01-08T11:59:12.000Z,81.86
2023-01-08T12:00:12.000Z,82.27
2023-01-08T12:01:12.000Z,82.57
2023-01-08T12:02:12.000Z,81.96
2023-01-08T12:03:12.000Z,81.71
2023-01-08T12:04:12.000Z,81.82
2023-01-08T12:13:29.000Z,81.41
2023-01-08T12:13:29.000Z,81.71
2023-01-08T12:14:29.000Z,82.03
2023-01-08T12:37:39.000Z,81.82
2023-01-08T12:37:39.000Z,82.13
2023-01-08T12:38:39.000Z,81.68
2023-01-08T12:39:39.000Z,81.68
2023-01-08T12:40:39.000Z,82.29
2023-01-08T12:41:39.000Z,82.29
2023-01-08T12:42:39.000Z,81.88
2023-01-08T12:43:39.000Z,81.88
2023-01-08T12:44:39.000Z,82.19
2023-01-08T12:45:39.000Z,83.12
2023-01-08T12:46:39.000Z,82.40
2023-01-08T12:47:39.000Z,81.99
2023-01-08T12:48:39.000Z,82.29
2023-01-08T12:49:39.000Z,82.09
2023-01-08T12:50:39.000Z,82.60
2023-01-08T12:51:39.000Z,82.60
2023-01-08T12:52:39.000Z,82.91
2023-01-08T12:53:39.000Z,83.01
2023-01-08T12:54:39.000Z,83.12
2023-01-08T12:55:39.000Z,83.73
2023-01-08T12:56:39.000Z,82.60
2023-01-08T12:57:39.000Z,82.29
2023-01-08T12:58:39.000Z,82.50
2023-01-08T12:59:39.000Z,82.50
2023-01-08T13:00:39.000Z,82.70
2023-01-08T13:01:39.000Z,82.70
2023-01-08T13:02:39.000Z,82.70
2023-01-08T13:03:39.000Z,82.60
2023-01-08T13:04:39.000Z,82.40
2023-01-08T13:05:39.000Z,82.50
2023-01-08T13:06:39.000Z,82.09
2023-01-08T13:07:39.000Z,82.60
2023-01-08T13:08:39.000Z,82.56
2023-01-08T13:09:39.000Z,82.29
2023-01-08T13:10:39.000Z,82.91
2023-01-08T13:11:39.000Z,82.40
2023-01-08T13:12:39.000Z,82.05
2023-01-08T13:13:39.000Z,82.56
2023-01-08T13:14:39.000Z,82.60
2023-01-08T13:15:39.000Z,82.50
2023-01-08T13:16:39.000Z,82.60
2023-01-08T13:17:39.000Z,82.40
2023-01-08T13:18:39.000Z,82.19
2023-01-08T13:19:39.000Z,81.85
2023-01-08T13:20:39.000Z,82.46
2023-01-08T13:21:39.000Z,82.70
2023-01-08T13:22:39.000Z,82.26
2023-01-08T13:23:39.000Z,82.67
2023-01-08T13:24:39.000Z,82.87
2023-01-08T13:25:39.000Z,82.97
2023-01-08T13:26:39.000Z,82.97
2023-01-08T13:27:39.000Z,82.97
2023-01-08T13:28:39.000Z,82.46
2023-01-08T13:29:39.000Z,83.39
2023-01-08T13:30:39.000Z,83.32
2023-01-08T13:31:39.000Z,83.01